الصفحة الرئيسية
METAR-TAF:

METAR-TAF

مطار :

مطار أوكلاند الدولي

أوكلاند, نيوزيلندا

دائرة عرض: 37-01S, خط طول: 174-48E, ارتفاع: 7 متر

مراقبة الطقس الحالي

تاريخ ووقت الإصدار 28 دقيقة قبل الساعة 23:30UTC
ريح 6 عقدة من الجنوب الغربي, الاتجاه يتراوح بين الجنوب و الغرب/الجنوب الغربي
درجة الحرارة 18°درجة مئوية
الرطوبة 64%
ضغط 1021 hPa
الرؤية 10 كم أو أكثر

METAR: NZAA 282330Z AUTO 22006KT 170V240 9999 NCD 18/11 Q1021 NOSIG

زمن: 12:58 (23:58 UTC)

توقعات

تاريخ ووقت الإصدار 49 دقيقة قبل الساعة 23:09UTC
التوقعات صالحة من29 الساعة 00 UTC إلى 30 الساعة 00 UTC
ريح 8 عقدة من الجنوب
الرؤية 10 كم أو أكثر
غيوم قليلة على ارتفاع 4000 قدم
أصبح
من 29 الساعة 00 UTC إلى 29 الساعة 02 UTC
ريح 10 عقدة من الجنوب الغربي
أصبح
من 29 الساعة 08 UTC إلى 29 الساعة 10 UTC
ريح 5 عقدة من الجنوب/الجنوب الشرقي

TAF: NZAA 282309Z 2900/3000 17008KT 9999 FEW040 BECMG 2900/2902 23010KT BECMG 2908/2910 16005KT

أرصاد الطقس والتوقعات من أكثر من 4000 مطار (تقارير الطقس للمطار METAR والتنبؤ بالطقس بالمطارTAF).

المحطات المتاحة هي النقط الصفراء والحمراء على الخريطة.

حرك المؤشر فوق النقطة لمعرفة اسم المحطة.

ثم انقر لمعرفة أرصاد وتوقعات الطقس.

لتغيير الخارطة: اضغط على الأزرار الخضراء مع رمز الصليب الأسود للتكبير. على الزر الأخضر مع شرطة للتصغير، أو على الأسهم الخضراء للخرائط المجاورة.


METAR-TAF: